Time;durP1;ratioP1;P1;durP2;ratioP2;P2;SDS_P1;SDS_P2;PMS_P1;PMS_P2;Temp;Humidity;BMP_temperature;BMP_pressure;BME280_temperature;BME280_humidity;BME280_pressure;Samples;Min_cycle;Max_cycle;Signal;HPM_P1;HPM_P2
2021/09/14 00:01:16;;;;;;;3.63;1.52;;;16.90;99.90;;;;;;5051523;28;20203;-78
2021/09/14 00:03:42;;;;;;;28.00;3.10;;;16.90;99.90;;;;;;5069448;28;20157;-78
2021/09/14 00:06:08;;;;;;;1.85;0.80;;;16.90;99.90;;;;;;5051574;28;20191;-78
2021/09/14 00:08:34;;;;;;;1.15;0.95;;;16.90;99.90;;;;;;5051514;28;20228;-77
2021/09/14 00:11:00;;;;;;;0.40;0.40;;;16.80;99.90;;;;;;5069373;28;20192;-78
2021/09/14 00:13:26;;;;;;;1.40;1.30;;;16.70;99.90;;;;;;5051393;28;20223;-78
2021/09/14 00:15:53;;;;;;;1.55;1.45;;;16.70;99.90;;;;;;5051107;28;20168;-78
2021/09/14 00:18:18;;;;;;;0.95;0.95;;;16.70;99.90;;;;;;5069324;28;20233;-78
2021/09/14 00:20:44;;;;;;;1.85;1.75;;;16.60;99.90;;;;;;5051280;28;20188;-78
2021/09/14 00:23:10;;;;;;;0.57;0.57;;;16.70;99.90;;;;;;5051303;28;20176;-78
2021/09/14 00:25:36;;;;;;;1.60;1.50;;;16.60;99.90;;;;;;5069792;28;20271;-77
2021/09/14 00:28:03;;;;;;;1.08;1.02;;;16.70;99.90;;;;;;5069346;28;20188;-77
2021/09/14 00:30:29;;;;;;;0.88;0.88;;;16.90;99.90;;;;;;5068829;28;20184;-78
2021/09/14 00:32:55;;;;;;;1.73;0.75;;;16.80;99.90;;;;;;5069039;28;20193;-78
2021/09/14 00:35:21;;;;;;;2.80;2.50;;;16.70;99.90;;;;;;5050931;28;20161;-78
2021/09/14 00:37:47;;;;;;;2.90;2.35;;;16.80;99.90;;;;;;5068885;28;20621;-78
2021/09/14 00:40:13;;;;;;;4.32;1.42;;;16.80;99.90;;;;;;5050668;28;20255;-78
2021/09/14 00:42:39;;;;;;;1.55;0.85;;;16.60;99.90;;;;;;5050920;28;20211;-77
2021/09/14 00:45:06;;;;;;;0.57;0.57;;;16.50;99.90;;;;;;5050562;28;20173;-76
2021/09/14 00:47:32;;;;;;;1.83;1.73;;;16.50;99.90;;;;;;5050699;28;20244;-78
2021/09/14 00:50:00;;;;;;;1.40;1.20;;;16.40;99.90;;;;;;5046894;28;20649;-78
2021/09/14 00:52:28;;;;;;;1.25;0.98;;;16.40;99.90;;;;;;5048432;28;20201;-78
2021/09/14 00:54:56;;;;;;;0.77;0.63;;;16.30;99.90;;;;;;5047483;28;20186;-78
2021/09/14 00:57:22;;;;;;;1.35;1.25;;;16.40;99.90;;;;;;5047283;28;20181;-77
2021/09/14 00:59:47;;;;;;;0.65;0.65;;;16.40;99.90;;;;;;5048720;28;20161;-77
2021/09/14 01:02:14;;;;;;;0.73;0.68;;;16.40;99.90;;;;;;5047404;28;20243;-77
2021/09/14 01:04:40;;;;;;;0.98;0.90;;;16.40;99.90;;;;;;5049013;28;20177;-77
2021/09/14 01:07:06;;;;;;;0.15;0.15;;;16.40;99.90;;;;;;5047211;28;20195;-77
2021/09/14 01:09:35;;;;;;;3.45;1.95;;;16.30;99.90;;;;;;5047212;28;20172;-76
2021/09/14 01:12:02;;;;;;;1.95;1.02;;;16.20;99.90;;;;;;5048362;28;20223;-76
2021/09/14 01:14:28;;;;;;;1.63;1.52;;;16.20;99.90;;;;;;5048269;28;20165;-75
2021/09/14 01:16:54;;;;;;;0.93;0.93;;;16.20;99.90;;;;;;5063423;28;20328;-78
2021/09/14 01:19:20;;;;;;;1.02;0.88;;;16.30;99.90;;;;;;5046862;28;20539;-75
2021/09/14 01:21:45;;;;;;;1.30;1.20;;;16.30;99.90;;;;;;5046648;28;20566;-75
2021/09/14 01:24:13;;;;;;;2.15;1.17;;;16.30;99.90;;;;;;5046859;28;20170;-75
2021/09/14 01:26:39;;;;;;;1.33;1.00;;;16.20;99.90;;;;;;5046148;28;20235;-75
2021/09/14 01:29:09;;;;;;;0.85;0.80;;;16.20;99.90;;;;;;5046434;28;20169;-75
2021/09/14 01:31:36;;;;;;;1.55;1.45;;;16.30;99.90;;;;;;5047890;28;20192;-75
2021/09/14 01:34:03;;;;;;;1.02;0.65;;;16.30;99.90;;;;;;5048007;28;20172;-76
2021/09/14 01:36:30;;;;;;;1.08;1.08;;;16.20;99.90;;;;;;5047953;28;20157;-76
2021/09/14 01:38:56;;;;;;;1.65;1.55;;;16.10;99.90;;;;;;5047985;28;20153;-77
2021/09/14 01:41:22;;;;;;;1.33;0.98;;;16.10;99.90;;;;;;5046491;28;20201;-77
2021/09/14 01:43:49;;;;;;;1.55;1.20;;;16.10;99.90;;;;;;5047780;28;20154;-76
2021/09/14 01:46:15;;;;;;;0.75;0.68;;;16.10;99.90;;;;;;5046259;28;20189;-77
2021/09/14 01:48:41;;;;;;;0.68;0.68;;;16.10;99.90;;;;;;5047829;28;20161;-76
2021/09/14 01:51:07;;;;;;;3.60;0.98;;;16.00;99.90;;;;;;5064875;28;20731;-77
2021/09/14 01:53:33;;;;;;;2.28;1.05;;;16.10;99.90;;;;;;5067627;28;20188;-78
2021/09/14 01:56:05;;;;;;;1.33;0.95;;;16.10;99.90;;;;;;5049700;28;20183;-77
2021/09/14 01:58:31;;;;;;;2.28;1.10;;;16.10;99.90;;;;;;5067550;28;20563;-77
2021/09/14 02:01:09;;;;;;;1.67;1.58;;;16.20;99.90;;;;;;5067662;28;20223;-76
2021/09/14 02:39:13;;;;;;;0.55;0.55;;;16.80;99.90;;;;;;5068494;28;20171;-78
2021/09/14 02:42:07;;;;;;;1.23;1.05;;;16.80;99.90;;;;;;5048449;28;20271;-78
2021/09/14 03:00:43;;;;;;;0.80;0.80;;;16.40;99.90;;;;;;5070286;28;20200;-77
2021/09/14 03:03:09;;;;;;;0.35;0.35;;;16.40;99.90;;;;;;5069034;28;20606;-77
2021/09/14 03:05:35;;;;;;;0.70;0.70;;;16.50;99.90;;;;;;5068925;28;20172;-77
2021/09/14 03:08:01;;;;;;;0.98;0.98;;;16.30;99.90;;;;;;5052171;28;20183;-79
2021/09/14 03:10:27;;;;;;;3.22;2.20;;;16.20;99.90;;;;;;5051907;28;20244;-77
2021/09/14 03:12:53;;;;;;;2.15;1.95;;;16.20;99.90;;;;;;5069951;28;20199;-76
2021/09/14 03:15:19;;;;;;;0.50;0.50;;;16.20;99.90;;;;;;5051884;28;20236;-77
2021/09/14 03:17:44;;;;;;;0.90;0.90;;;16.30;99.90;;;;;;5051704;28;20168;-76
2021/09/14 03:20:11;;;;;;;0.30;0.30;;;16.30;99.90;;;;;;5070172;28;20160;-77
2021/09/14 03:22:37;;;;;;;1.70;1.65;;;16.30;99.90;;;;;;5069986;28;20227;-78
2021/09/14 03:25:03;;;;;;;0.55;0.55;;;16.30;99.90;;;;;;5051663;28;20176;-77
2021/09/14 03:27:29;;;;;;;3.90;1.83;;;16.40;99.90;;;;;;5051595;28;20187;-77
2021/09/14 03:29:55;;;;;;;0.77;0.77;;;16.30;99.90;;;;;;5051544;28;20165;-77
2021/09/14 03:32:21;;;;;;;1.17;1.15;;;16.20;99.90;;;;;;5051618;28;20211;-78
2021/09/14 03:34:46;;;;;;;2.72;1.27;;;16.20;99.90;;;;;;5070087;28;20179;-77
2021/09/14 03:37:12;;;;;;;1.02;1.02;;;16.20;99.90;;;;;;5069801;28;20175;-77
2021/09/14 03:39:39;;;;;;;0.73;0.73;;;16.20;99.90;;;;;;5069594;28;20192;-77
2021/09/14 03:42:05;;;;;;;18.20;2.10;;;16.30;99.90;;;;;;5051592;28;20223;-77
2021/09/14 03:44:30;;;;;;;1.25;1.02;;;16.30;99.90;;;;;;5069634;28;20172;-78
2021/09/14 03:46:56;;;;;;;0.47;0.47;;;16.10;99.90;;;;;;5051584;28;20204;-78
2021/09/14 03:49:22;;;;;;;1.13;1.02;;;15.90;99.90;;;;;;5067654;28;20205;-77
2021/09/14 03:51:48;;;;;;;0.88;0.88;;;15.80;99.90;;;;;;5049940;28;20216;-77
2021/09/14 03:54:14;;;;;;;0.70;0.70;;;16.00;99.90;;;;;;5069351;28;20161;-76
2021/09/14 03:56:39;;;;;;;1.42;1.40;;;16.00;99.90;;;;;;5051429;28;20194;-77
2021/09/14 03:59:05;;;;;;;0.55;0.55;;;15.90;99.90;;;;;;5051156;28;20176;-77
2021/09/14 04:01:35;;;;;;;0.90;0.90;;;15.90;99.90;;;;;;5067462;28;20213;-77
2021/09/14 04:04:13;;;;;;;0.88;0.88;;;15.70;99.90;;;;;;5050906;28;20184;-78
2021/09/14 04:09:05;;;;;;;0.68;0.60;;;15.90;99.90;;;;;;5069244;28;20165;-78
2021/09/14 04:11:31;;;;;;;2.53;1.30;;;15.70;99.90;;;;;;5050497;28;20207;-78
2021/09/14 04:13:57;;;;;;;0.10;0.10;;;15.60;99.90;;;;;;5068633;28;20606;-77
2021/09/14 04:16:24;;;;;;;0.65;0.65;;;15.90;99.90;;;;;;5050847;28;20203;-77
2021/09/14 04:18:50;;;;;;;2.17;1.00;;;16.00;99.90;;;;;;5050704;28;20179;-78
2021/09/14 04:21:16;;;;;;;0.82;0.82;;;15.70;99.90;;;;;;5050546;28;20201;-77
2021/09/14 04:23:42;;;;;;;4.15;1.50;;;15.70;99.90;;;;;;5069398;28;20180;-78
2021/09/14 04:26:08;;;;;;;0.30;0.30;;;15.80;99.90;;;;;;5068212;28;20181;-79
2021/09/14 04:28:34;;;;;;;0.28;0.28;;;15.90;99.90;;;;;;5069112;28;20184;-77
2021/09/14 04:31:00;;;;;;;1.65;1.08;;;15.90;99.90;;;;;;5068225;28;20200;-77
2021/09/14 04:33:26;;;;;;;1.58;1.42;;;15.90;99.90;;;;;;5068290;28;20196;-76
2021/09/14 04:35:52;;;;;;;0.50;0.50;;;15.90;99.90;;;;;;5047491;28;20173;-77
2021/09/14 04:38:18;;;;;;;0.82;0.82;;;15.90;99.90;;;;;;5068123;28;20161;-79
2021/09/14 04:40:44;;;;;;;0.50;0.50;;;15.90;99.90;;;;;;5067009;28;20203;-82
2021/09/14 04:43:10;;;;;;;2.20;0.90;;;15.80;99.90;;;;;;5066973;28;20177;-79
2021/09/14 04:45:36;;;;;;;1.25;1.25;;;15.90;99.90;;;;;;5050408;28;20240;-79
2021/09/14 04:48:02;;;;;;;1.92;0.80;;;16.00;99.90;;;;;;5066807;28;20234;-81
2021/09/14 04:50:27;;;;;;;1.42;1.33;;;16.00;99.90;;;;;;5050043;28;20232;-79
2021/09/14 04:52:53;;;;;;;1.48;1.17;;;16.00;99.90;;;;;;5049959;28;20281;-74
2021/09/14 04:55:19;;;;;;;0.90;0.57;;;16.00;99.90;;;;;;5050017;28;20176;-74
2021/09/14 04:57:45;;;;;;;6.88;0.95;;;16.00;99.90;;;;;;5068145;28;20225;-74
2021/09/14 05:00:14;;;;;;;1.73;1.13;;;16.00;99.90;;;;;;5067931;28;20183;-74
2021/09/14 05:02:40;;;;;;;0.93;0.88;;;15.90;99.90;;;;;;5067981;28;20184;-76
2021/09/14 05:05:07;;;;;;;0.85;0.85;;;15.60;99.90;;;;;;5065418;28;20176;-76
2021/09/14 05:07:33;;;;;;;1.98;1.30;;;15.70;99.90;;;;;;5064511;28;20236;-77
2021/09/14 05:09:59;;;;;;;1.45;1.35;;;15.90;99.90;;;;;;5067825;28;20172;-75
2021/09/14 05:12:24;;;;;;;1.05;1.00;;;16.10;99.90;;;;;;5067059;28;20263;-74
2021/09/14 05:14:50;;;;;;;1.20;1.20;;;16.10;99.90;;;;;;5067448;28;20229;-75
2021/09/14 05:17:16;;;;;;;1.67;1.58;;;16.20;99.90;;;;;;5067322;28;20167;-75
2021/09/14 05:19:44;;;;;;;0.65;0.65;;;15.90;99.90;;;;;;5049249;28;20173;-75
2021/09/14 05:22:12;;;;;;;1.25;1.23;;;15.80;99.90;;;;;;5067208;28;20188;-76
2021/09/14 05:24:38;;;;;;;0.32;0.32;;;15.90;99.90;;;;;;5066747;28;20188;-74
2021/09/14 05:27:04;;;;;;;4.47;1.75;;;16.10;99.90;;;;;;5048963;28;20169;-73
2021/09/14 05:29:30;;;;;;;0.68;0.68;;;16.20;99.90;;;;;;5049140;28;20180;-74
2021/09/14 05:31:57;;;;;;;2.65;2.45;;;16.20;99.90;;;;;;5066986;28;20211;-74
2021/09/14 05:34:24;;;;;;;1.50;1.10;;;16.20;99.90;;;;;;5067697;28;20160;-75
2021/09/14 05:36:52;;;;;;;0.55;0.55;;;16.20;99.90;;;;;;5049578;28;20161;-74
2021/09/14 05:39:17;;;;;;;2.20;0.70;;;16.30;99.90;;;;;;5067498;28;20618;-77
2021/09/14 05:41:43;;;;;;;0.40;0.40;;;16.80;99.90;;;;;;5049656;28;20283;-78
2021/09/14 05:44:09;;;;;;;3.38;2.20;;;17.20;99.90;;;;;;5067609;28;20157;-79
2021/09/14 05:46:37;;;;;;;1.73;1.63;;;17.30;99.90;;;;;;5067501;28;20161;-79
2021/09/14 05:49:04;;;;;;;1.40;1.25;;;17.50;99.90;;;;;;5067247;28;20543;-78
2021/09/14 05:51:31;;;;;;;0.68;0.68;;;17.70;99.90;;;;;;5067337;28;20175;-80
2021/09/14 05:53:57;;;;;;;1.65;1.50;;;17.90;99.90;;;;;;5067656;28;20230;-79
2021/09/14 05:56:23;;;;;;;1.05;1.05;;;17.90;99.90;;;;;;5049432;28;20169;-79
2021/09/14 05:58:49;;;;;;;0.40;0.40;;;17.80;99.90;;;;;;5049213;28;20203;-79
2021/09/14 06:01:15;;;;;;;1.58;1.48;;;17.60;99.90;;;;;;5067587;28;20633;-79
2021/09/14 06:03:41;;;;;;;1.52;1.42;;;17.60;99.90;;;;;;5049454;28;20196;-79
2021/09/14 06:06:08;;;;;;;4.57;1.73;;;17.70;99.90;;;;;;5049521;28;20169;-79
2021/09/14 06:08:34;;;;;;;4.47;3.67;;;17.80;99.90;;;;;;5049699;28;20173;-80
2021/09/14 06:11:00;;;;;;;2.30;2.10;;;17.70;99.90;;;;;;5066097;28;20215;-79
2021/09/14 06:13:26;;;;;;;2.20;1.75;;;17.60;99.90;;;;;;5067788;28;20211;-79
2021/09/14 06:15:52;;;;;;;0.90;0.80;;;17.60;99.90;;;;;;5071372;28;20153;-79
2021/09/14 06:18:20;;;;;;;4.40;1.13;;;17.60;99.90;;;;;;5071269;28;20186;-79
2021/09/14 06:20:46;;;;;;;2.65;1.55;;;17.70;99.90;;;;;;5053115;28;20177;-79
2021/09/14 06:23:12;;;;;;;1.25;1.15;;;17.80;99.90;;;;;;5052715;28;20222;-79
2021/09/14 06:25:38;;;;;;;2.00;1.20;;;18.10;99.90;;;;;;5071142;28;20165;-79
2021/09/14 06:28:07;;;;;;;1.50;0.90;;;18.20;99.90;;;;;;5071008;28;20236;-79
2021/09/14 06:30:33;;;;;;;1.00;0.88;;;18.60;99.90;;;;;;5052797;28;20177;-81
2021/09/14 06:32:59;;;;;;;1.52;1.45;;;18.90;99.90;;;;;;5070625;28;20223;-79
2021/09/14 06:35:25;;;;;;;2.15;1.77;;;19.60;99.90;;;;;;5052960;28;20165;-81
2021/09/14 06:37:50;;;;;;;4.05;1.90;;;20.60;99.90;;;;;;5052862;28;20199;-82
2021/09/14 06:40:16;;;;;;;1.10;1.02;;;21.30;99.90;;;;;;5071279;28;20172;-82
2021/09/14 06:42:42;;;;;;;1.23;1.15;;;21.50;99.90;;;;;;5071559;28;20205;-81
2021/09/14 06:45:11;;;;;;;1.83;1.30;;;22.10;99.90;;;;;;5069611;28;20287;-81
2021/09/14 06:47:37;;;;;;;3.05;2.33;;;21.90;99.90;;;;;;5071412;28;20239;-81
2021/09/14 06:50:04;;;;;;;1.60;1.45;;;22.10;99.90;;;;;;5071412;28;20227;-81
2021/09/14 06:52:30;;;;;;;1.13;1.02;;;22.20;99.90;;;;;;5056948;28;20318;-82
2021/09/14 06:54:56;;;;;;;1.58;1.48;;;22.70;99.90;;;;;;5073866;28;20163;-83
2021/09/14 06:57:23;;;;;;;0.73;0.50;;;23.30;99.90;;;;;;5071123;28;20156;-83
2021/09/14 06:59:49;;;;;;;1.75;1.48;;;22.80;99.90;;;;;;5052913;28;20167;-83
2021/09/14 07:02:15;;;;;;;1.00;0.95;;;22.00;99.90;;;;;;5052895;28;20221;-83
2021/09/14 07:04:42;;;;;;;1.65;1.55;;;22.50;99.90;;;;;;5052926;28;20183;-84
2021/09/14 07:07:08;;;;;;;1.65;1.33;;;23.30;99.90;;;;;;5070779;28;20212;-83
2021/09/14 07:09:34;;;;;;;4.22;1.00;;;23.60;99.90;;;;;;5052794;28;20164;-83
2021/09/14 07:11:59;;;;;;;1.10;0.98;;;23.80;99.90;;;;;;5053597;28;20196;-83
2021/09/14 07:14:25;;;;;;;1.83;1.55;;;23.80;99.90;;;;;;5071286;28;20175;-86
2021/09/14 07:16:54;;;;;;;2.42;2.25;;;23.60;99.90;;;;;;5056081;28;20176;-87
2021/09/14 07:19:20;;;;;;;2.13;1.92;;;23.60;99.90;;;;;;5055863;28;20175;-86
2021/09/14 07:21:46;;;;;;;2.20;1.45;;;25.00;99.90;;;;;;5053552;28;20164;-85
2021/09/14 07:24:12;;;;;;;1.10;0.98;;;25.50;99.90;;;;;;5069848;28;20153;-85
2021/09/14 07:26:38;;;;;;;34.33;2.05;;;25.60;99.90;;;;;;5050833;28;20163;-84
2021/09/14 07:29:04;;;;;;;6.30;2.22;;;25.40;99.90;;;;;;5066679;28;20210;-86
2021/09/14 07:31:32;;;;;;;2.25;1.17;;;24.90;99.90;;;;;;5068195;28;20156;-85
2021/09/14 07:33:58;;;;;;;1.73;1.60;;;24.70;99.90;;;;;;5068135;28;20564;-85
2021/09/14 07:36:24;;;;;;;4.18;1.92;;;25.70;99.90;;;;;;5069713;28;20196;-85
2021/09/14 07:38:49;;;;;;;1.90;1.67;;;26.00;99.90;;;;;;5069893;28;20160;-85
2021/09/14 07:41:15;;;;;;;1.35;0.75;;;25.40;99.90;;;;;;5052019;28;20170;-84
2021/09/14 07:43:41;;;;;;;1.35;1.25;;;25.90;99.90;;;;;;5069170;28;20196;-85
2021/09/14 07:46:10;;;;;;;3.17;1.98;;;25.60;99.90;;;;;;5051210;28;20188;-85
2021/09/14 07:48:37;;;;;;;2.88;1.77;;;26.30;99.90;;;;;;5070311;28;20156;-83
2021/09/14 07:51:04;;;;;;;1.90;1.42;;;27.00;99.90;;;;;;5049739;28;20270;-88
2021/09/14 07:53:30;;;;;;;1.27;1.17;;;27.20;99.90;;;;;;5049965;28;20208;-87
2021/09/14 07:55:56;;;;;;;1.90;1.45;;;27.00;99.90;;;;;;5048394;28;20248;-86
2021/09/14 07:58:22;;;;;;;1.63;1.52;;;27.60;99.90;;;;;;5049651;28;20157;-85
2021/09/14 08:00:48;;;;;;;1.33;1.23;;;27.40;99.90;;;;;;5049529;28;20161;-85
2021/09/14 08:03:14;;;;;;;0.90;0.90;;;27.40;99.90;;;;;;5047724;28;20192;-86
2021/09/14 08:05:40;;;;;;;13.10;1.25;;;27.90;99.90;;;;;;5046835;28;20551;-83
2021/09/14 08:08:08;;;;;;;1.00;0.88;;;27.70;99.90;;;;;;5064833;28;20175;-86
2021/09/14 08:10:37;;;;;;;6.10;1.17;;;28.00;99.90;;;;;;5049010;28;20191;-82
2021/09/14 08:13:04;;;;;;;1.35;1.25;;;27.60;99.90;;;;;;5044400;28;20219;-79
2021/09/14 08:15:30;;;;;;;18.45;1.60;;;27.40;99.90;;;;;;5028404;28;20157;-79
2021/09/14 08:17:56;;;;;;;1.38;1.25;;;27.80;99.90;;;;;;5029429;28;20184;-80
2021/09/14 08:20:22;;;;;;;1.75;1.55;;;27.40;99.90;;;;;;5029599;28;20573;-79
2021/09/14 08:22:48;;;;;;;1.40;1.30;;;26.50;99.90;;;;;;5044394;28;20289;-78
2021/09/14 08:25:14;;;;;;;1.17;0.95;;;26.60;99.90;;;;;;5043886;28;20273;-78
2021/09/14 08:27:41;;;;;;;1.60;0.98;;;26.80;99.90;;;;;;5028622;28;20165;-78
2021/09/14 08:30:08;;;;;;;5.15;1.60;;;26.90;99.90;;;;;;5027953;28;20210;-80
2021/09/14 08:32:34;;;;;;;13.70;1.23;;;26.30;99.90;;;;;;5028927;28;20212;-78
2021/09/14 08:35:00;;;;;;;1.70;1.58;;;26.00;99.90;;;;;;5028996;28;20153;-79
2021/09/14 08:37:27;;;;;;;0.85;0.85;;;26.00;99.90;;;;;;5044085;28;20165;-79
2021/09/14 08:39:52;;;;;;;1.45;1.27;;;25.90;99.90;;;;;;5027768;28;20174;-80
2021/09/14 08:42:21;;;;;;;1.30;1.08;;;25.30;99.90;;;;;;5027718;28;20208;-79
2021/09/14 08:44:47;;;;;;;0.98;0.75;;;25.30;99.90;;;;;;5029071;28;20176;-79
2021/09/14 08:47:15;;;;;;;2.58;1.48;;;25.60;99.90;;;;;;5028848;28;20161;-80
2021/09/14 08:49:41;;;;;;;0.77;0.77;;;25.70;99.90;;;;;;5027536;28;20236;-81
2021/09/14 08:52:07;;;;;;;1.52;0.75;;;25.50;99.90;;;;;;5028771;28;20261;-81
2021/09/14 08:54:34;;;;;;;0.43;0.43;;;25.00;99.90;;;;;;5028838;28;20335;-82
2021/09/14 08:57:00;;;;;;;1.15;1.05;;;25.30;99.90;;;;;;5028732;28;20158;-81
2021/09/14 08:59:28;;;;;;;0.90;0.90;;;25.90;99.90;;;;;;5027261;28;20173;-83
2021/09/14 09:02:06;;;;;;;3.13;1.60;;;25.80;99.90;;;;;;5027358;28;20200;-83
2021/09/14 09:04:33;;;;;;;1.15;1.05;;;25.80;99.90;;;;;;5028700;28;20157;-83
2021/09/14 09:06:59;;;;;;;2.03;1.88;;;25.80;99.90;;;;;;5027252;28;20169;-80
2021/09/14 09:09:29;;;;;;;0.50;0.50;;;25.50;99.90;;;;;;5028779;28;20226;-80
2021/09/14 09:12:10;;;;;;;3.25;0.90;;;25.70;99.90;;;;;;5027041;28;20207;-81
2021/09/14 09:14:43;;;;;;;1.40;0.75;;;26.20;99.90;;;;;;5029360;28;20189;-82
2021/09/14 09:17:11;;;;;;;4.72;2.05;;;26.90;99.90;;;;;;5031020;28;20173;-81
2021/09/14 09:19:39;;;;;;;1.85;1.55;;;27.10;99.90;;;;;;5031248;28;20164;-79
2021/09/14 09:22:09;;;;;;;1.48;1.42;;;26.90;99.90;;;;;;5028024;28;20208;-79
2021/09/14 09:24:44;;;;;;;0.80;0.75;;;27.10;99.90;;;;;;5028410;28;20164;-80
2021/09/14 09:27:15;;;;;;;2.25;1.13;;;27.20;99.90;;;;;;5043706;28;20173;-81
2021/09/14 09:29:41;;;;;;;0.68;0.65;;;27.70;99.90;;;;;;5028361;28;20160;-79
2021/09/14 09:32:07;;;;;;;1.02;1.02;;;27.50;99.90;;;;;;5028357;28;20208;-81
2021/09/14 09:34:33;;;;;;;1.58;1.25;;;26.10;99.90;;;;;;5028384;28;20158;-81
2021/09/14 09:37:06;;;;;;;1.08;1.02;;;26.20;99.90;;;;;;5028218;28;20166;-78
2021/09/14 09:39:45;;;;;;;0.52;0.52;;;27.20;99.90;;;;;;5026748;28;20165;-79
2021/09/14 09:42:12;;;;;;;2.03;1.58;;;27.60;99.90;;;;;;5026821;28;20200;-80
2021/09/14 09:44:39;;;;;;;3.40;1.00;;;28.40;99.90;;;;;;5026668;28;20170;-80
2021/09/14 09:47:06;;;;;;;1.55;1.38;;;28.70;99.90;;;;;;5043332;28;20201;-80
2021/09/14 09:49:33;;;;;;;2.47;1.63;;;28.90;99.90;;;;;;5029331;28;20225;-80
2021/09/14 09:51:59;;;;;;;2.22;1.35;;;29.00;99.90;;;;;;5031971;28;20205;-80
2021/09/14 09:54:26;;;;;;;2.05;1.02;;;28.60;99.90;;;;;;5032133;28;20191;-80
2021/09/14 09:56:52;;;;;;;1.83;1.40;;;28.70;99.90;;;;;;5032173;28;20164;-80
2021/09/14 09:59:19;;;;;;;4.70;1.83;;;28.60;99.90;;;;;;5030750;28;20180;-80
2021/09/14 10:02:06;;;;;;;0.63;0.63;;;29.10;99.90;;;;;;5030497;28;20228;-78
2021/09/14 10:04:44;;;;;;;1.55;1.45;;;29.90;99.90;;;;;;5047259;28;20179;-80
2021/09/14 10:07:12;;;;;;;1.63;1.33;;;30.30;99.90;;;;;;5030582;28;20226;-80
2021/09/14 10:09:49;;;;;;;1.15;1.05;;;30.80;99.90;;;;;;5031698;28;20164;-80
2021/09/14 10:12:26;;;;;;;1.48;0.70;;;31.10;97.90;;;;;;5031592;28;20284;-80
2021/09/14 10:15:08;;;;;;;1.02;1.02;;;30.30;98.80;;;;;;5046843;28;20170;-80
2021/09/14 10:17:54;;;;;;;3.83;1.27;;;30.70;98.60;;;;;;5031635;28;20164;-80
2021/09/14 10:20:24;;;;;;;2.03;1.85;;;31.10;99.20;;;;;;5030286;28;20192;-80
2021/09/14 10:23:06;;;;;;;1.48;1.38;;;30.60;99.90;;;;;;5031274;28;20193;-80
2021/09/14 10:25:32;;;;;;;0.73;0.70;;;30.50;99.90;;;;;;5031726;28;20161;-79
2021/09/14 10:28:10;;;;;;;2.47;1.88;;;30.00;99.50;;;;;;5047075;28;20182;-82
2021/09/14 10:30:37;;;;;;;0.50;0.50;;;29.40;99.90;;;;;;5030460;28;20181;-81
2021/09/14 10:33:05;;;;;;;1.08;1.05;;;29.60;99.90;;;;;;5031287;28;20205;-84
2021/09/14 10:35:35;;;;;;;1.80;1.35;;;30.00;99.90;;;;;;5031475;28;20224;-81
2021/09/14 10:38:12;;;;;;;1.42;1.33;;;30.80;99.40;;;;;;5031329;28;20165;-85
2021/09/14 10:40:44;;;;;;;1.13;1.00;;;30.50;99.80;;;;;;5031512;28;20177;-82
2021/09/14 10:43:29;;;;;;;0.80;0.80;;;30.50;99.00;;;;;;5055067;28;20200;-84
2021/09/14 10:45:57;;;;;;;2.40;1.70;;;29.70;99.60;;;;;;5039870;28;20200;-82
2021/09/14 10:48:23;;;;;;;1.05;1.02;;;28.90;99.90;;;;;;5029785;28;20170;-82
2021/09/14 10:50:50;;;;;;;1.02;0.80;;;29.30;99.90;;;;;;5044240;28;20288;-80
2021/09/14 10:53:25;;;;;;;1.27;1.17;;;30.10;99.90;;;;;;5049517;28;20209;-81
2021/09/14 10:55:52;;;;;;;2.28;1.77;;;30.60;98.50;;;;;;5050945;28;20684;-82
2021/09/14 10:58:19;;;;;;;2.67;1.15;;;30.60;98.70;;;;;;5044526;28;20161;-82
2021/09/14 11:00:48;;;;;;;2.70;1.58;;;30.50;99.50;;;;;;5030485;28;20169;-83
2021/09/14 11:03:17;;;;;;;1.05;0.95;;;30.60;99.60;;;;;;5030573;28;20227;-85
2021/09/14 11:05:53;;;;;;;1.33;1.23;;;30.30;98.40;;;;;;5030916;28;20205;-83
2021/09/14 11:08:26;;;;;;;2.08;1.85;;;29.50;99.90;;;;;;5030687;28;20154;-82
2021/09/14 11:11:01;;;;;;;2.03;1.52;;;29.10;99.90;;;;;;5030614;28;20157;-80
2021/09/14 11:13:29;;;;;;;2.78;1.45;;;29.50;99.70;;;;;;5030471;28;20199;-82
2021/09/14 11:16:07;;;;;;;3.53;1.90;;;28.40;99.90;;;;;;5041213;28;20169;-81
2021/09/14 11:18:35;;;;;;;3.65;1.42;;;29.70;99.60;;;;;;5050503;28;20167;-82
2021/09/14 11:21:09;;;;;;;1.67;1.58;;;30.40;98.20;;;;;;5050432;28;20157;-82
2021/09/14 11:23:43;;;;;;;1.35;1.08;;;29.60;99.70;;;;;;5050345;28;20172;-83
2021/09/14 11:26:12;;;;;;;1.35;1.30;;;30.20;98.70;;;;;;5050227;28;20218;-82
2021/09/14 11:28:40;;;;;;;7.47;2.00;;;30.70;98.30;;;;;;5050251;28;20224;-83
2021/09/14 11:31:11;;;;;;;1.27;1.17;;;31.00;97.60;;;;;;5049000;28;20172;-82
2021/09/14 11:33:44;;;;;;;0.80;0.75;;;30.80;97.10;;;;;;5050506;28;20191;-82
2021/09/14 11:36:11;;;;;;;1.42;1.27;;;29.70;98.60;;;;;;5066840;28;20181;-81
2021/09/14 11:38:37;;;;;;;1.95;1.10;;;29.90;98.30;;;;;;5051859;28;20176;-81
2021/09/14 11:41:10;;;;;;;1.42;1.05;;;30.30;99.10;;;;;;5066999;28;20176;-83
2021/09/14 11:43:41;;;;;;;2.83;1.58;;;31.30;98.60;;;;;;5048832;28;20206;-81
2021/09/14 11:46:20;;;;;;;1.45;1.15;;;32.40;97.50;;;;;;5048832;28;20173;-83
2021/09/14 11:48:58;;;;;;;1.15;1.05;;;32.50;96.70;;;;;;5049707;28;20153;-82
2021/09/14 11:51:28;;;;;;;2.65;1.95;;;32.80;96.00;;;;;;5068871;28;20710;-83
2021/09/14 11:53:54;;;;;;;8.07;1.55;;;31.40;96.20;;;;;;5051764;28;20208;-84
2021/09/14 11:56:26;;;;;;;5.18;1.35;;;31.10;98.50;;;;;;5069604;28;20164;-84
2021/09/14 11:58:52;;;;;;;0.93;0.70;;;31.70;97.00;;;;;;5051643;28;20168;-84
2021/09/14 12:01:20;;;;;;;1.98;1.10;;;32.50;95.30;;;;;;5069515;28;20163;-84
2021/09/14 12:03:51;;;;;;;1.70;0.95;;;32.60;95.50;;;;;;5051547;28;20168;-83
2021/09/14 12:06:33;;;;;;;2.20;1.10;;;31.20;97.20;;;;;;5069594;28;20148;-84
2021/09/14 12:09:09;;;;;;;1.63;1.45;;;30.80;97.70;;;;;;5069515;28;20247;-84
2021/09/14 12:11:39;;;;;;;1.38;1.20;;;32.00;96.00;;;;;;5050732;28;20195;-84
2021/09/14 12:14:09;;;;;;;0.73;0.73;;;31.80;96.30;;;;;;5069311;28;20155;-84
2021/09/14 12:16:40;;;;;;;2.50;1.55;;;30.90;97.70;;;;;;5050779;28;20179;-82
2021/09/14 12:19:12;;;;;;;1.90;1.80;;;28.70;99.50;;;;;;5069333;28;20564;-82
2021/09/14 12:21:38;;;;;;;1.92;1.40;;;27.50;99.90;;;;;;5069055;28;20191;-83
2021/09/14 12:24:04;;;;;;;3.45;1.63;;;27.30;99.90;;;;;;5051014;28;20260;-83
2021/09/14 12:26:37;;;;;;;1.23;1.13;;;27.20;99.90;;;;;;5051172;28;20176;-82
2021/09/14 12:29:03;;;;;;;2.20;1.10;;;27.30;99.90;;;;;;5051040;28;20168;-83
2021/09/14 12:31:30;;;;;;;1.42;1.33;;;26.90;99.90;;;;;;5051056;28;20176;-81
2021/09/14 12:33:56;;;;;;;0.68;0.68;;;26.60;99.90;;;;;;5051198;28;20200;-81
2021/09/14 12:36:22;;;;;;;0.90;0.77;;;26.70;99.90;;;;;;5051321;28;20294;-78
2021/09/14 12:38:48;;;;;;;0.88;0.85;;;26.70;99.90;;;;;;5050851;28;20163;-79
2021/09/14 12:41:15;;;;;;;1.17;1.08;;;26.50;99.90;;;;;;5068657;28;20172;-79
2021/09/14 12:43:45;;;;;;;0.40;0.40;;;26.50;99.90;;;;;;5068949;28;20231;-79
2021/09/14 12:46:11;;;;;;;2.70;1.25;;;26.60;99.90;;;;;;5068489;28;20176;-79
2021/09/14 12:48:37;;;;;;;2.78;1.60;;;26.50;99.90;;;;;;5068675;28;20195;-79
2021/09/14 12:51:03;;;;;;;2.45;1.92;;;26.70;99.90;;;;;;5050412;28;20249;-78
2021/09/14 12:53:30;;;;;;;1.85;0.52;;;26.90;99.90;;;;;;5068500;28;20204;-78
2021/09/14 12:55:57;;;;;;;1.55;1.20;;;27.00;99.90;;;;;;5068655;28;20242;-76
2021/09/14 12:58:23;;;;;;;1.00;0.80;;;26.80;99.90;;;;;;5068466;28;20152;-78
2021/09/14 13:00:49;;;;;;;1.48;1.15;;;26.50;99.90;;;;;;5068522;28;20167;-82
2021/09/14 13:03:15;;;;;;;1.25;1.15;;;26.40;99.90;;;;;;5051003;28;20195;-81
2021/09/14 13:05:42;;;;;;;1.02;0.77;;;26.60;99.90;;;;;;5068846;28;20488;-81
2021/09/14 13:08:09;;;;;;;1.27;1.17;;;26.60;99.90;;;;;;5068303;28;20152;-82
2021/09/14 13:10:36;;;;;;;5.18;1.85;;;26.70;99.90;;;;;;5050375;28;20184;-82
2021/09/14 13:18:33;;;;;;;1.48;1.38;;;26.60;99.90;;;;;;5068334;28;20216;-82
2021/09/14 13:20:59;;;;;;;3.63;1.77;;;26.70;99.90;;;;;;5050507;28;20172;-82
2021/09/14 13:23:25;;;;;;;0.88;0.88;;;26.70;99.90;;;;;;5051048;28;20263;-83
2021/09/14 13:25:51;;;;;;;0.50;0.50;;;26.60;99.90;;;;;;5051959;28;20187;-78
2021/09/14 13:28:18;;;;;;;3.65;1.00;;;26.50;99.90;;;;;;5052288;28;20172;-81
2021/09/14 13:30:44;;;;;;;1.65;1.55;;;26.50;99.90;;;;;;5052795;28;20178;-80
2021/09/14 13:33:10;;;;;;;2.33;2.00;;;26.60;99.90;;;;;;5070362;28;20204;-79
2021/09/14 13:35:36;;;;;;;1.48;1.02;;;26.70;99.90;;;;;;5052598;28;20267;-78
2021/09/14 13:38:03;;;;;;;2.00;1.38;;;26.80;99.90;;;;;;5048109;28;20182;-80
2021/09/14 13:40:29;;;;;;;1.10;1.02;;;26.70;99.90;;;;;;5045525;28;20249;-79
2021/09/14 13:42:59;;;;;;;4.53;1.55;;;26.90;99.90;;;;;;5059681;28;21173;-82
2021/09/14 13:48:13;;;;;;;0.57;0.57;;;26.70;99.90;;;;;;5048488;28;20163;-80
2021/09/14 13:50:38;;;;;;;1.52;1.13;;;26.70;99.90;;;;;;5079763;28;20640;-81